sensor_id;sensor_type;location;lat;lon;timestamp;pressure;altitude;pressure_sealevel;temperature;humidity
63901;BME280;50538;53.482;10.294;2023-04-06T00:02:03;101593.31;;;2.20;79.15
63901;BME280;50538;53.482;10.294;2023-04-06T00:12:04;101596.72;;;2.06;79.78
63901;BME280;50538;53.482;10.294;2023-04-06T00:22:05;101589.50;;;1.95;79.61
63901;BME280;50538;53.482;10.294;2023-04-06T00:32:06;101575.16;;;1.87;80.08
63901;BME280;50538;53.482;10.294;2023-04-06T00:42:12;101572.19;;;1.79;80.25
63901;BME280;50538;53.482;10.294;2023-04-06T00:52:37;101570.19;;;1.68;81.20
63901;BME280;50538;53.482;10.294;2023-04-06T01:02:37;101550.59;;;1.59;81.77
63901;BME280;50538;53.482;10.294;2023-04-06T01:12:38;101558.22;;;1.48;81.71
63901;BME280;50538;53.482;10.294;2023-04-06T01:22:39;101557.22;;;1.35;82.37
63901;BME280;50538;53.482;10.294;2023-04-06T01:32:41;101548.16;;;1.26;82.65
63901;BME280;50538;53.482;10.294;2023-04-06T01:42:46;101545.13;;;1.18;83.04
63901;BME280;50538;53.482;10.294;2023-04-06T01:52:46;101544.34;;;1.16;82.90
63901;BME280;50538;53.482;10.294;2023-04-06T02:02:47;101530.78;;;1.10;82.65
63901;BME280;50538;53.482;10.294;2023-04-06T02:12:48;101530.28;;;1.03;82.69
63901;BME280;50538;53.482;10.294;2023-04-06T02:22:49;101520.41;;;0.92;82.62
63901;BME280;50538;53.482;10.294;2023-04-06T02:33:19;101515.59;;;0.85;82.85
63901;BME280;50538;53.482;10.294;2023-04-06T02:43:20;101525.63;;;0.77;83.20
63901;BME280;50538;53.482;10.294;2023-04-06T02:53:21;101530.38;;;0.70;84.36
63901;BME280;50538;53.482;10.294;2023-04-06T03:03:33;101528.25;;;0.77;87.42
63901;BME280;50538;53.482;10.294;2023-04-06T03:13:53;101520.31;;;0.94;90.83
63901;BME280;50538;53.482;10.294;2023-04-06T03:24:23;101516.44;;;1.01;91.13
63901;BME280;50538;53.482;10.294;2023-04-06T03:34:25;101521.00;;;0.97;89.33
63901;BME280;50538;53.482;10.294;2023-04-06T03:44:58;101516.44;;;0.85;87.48
63901;BME280;50538;53.482;10.294;2023-04-06T03:55:17;101523.19;;;0.74;86.17
63901;BME280;50538;53.482;10.294;2023-04-06T04:05:22;101530.78;;;0.62;85.67
63901;BME280;50538;53.482;10.294;2023-04-06T04:15:25;101536.59;;;0.52;85.95
63901;BME280;50538;53.482;10.294;2023-04-06T04:25:25;101540.69;;;0.40;86.10
63901;BME280;50538;53.482;10.294;2023-04-06T04:35:26;101536.72;;;0.33;86.42
63901;BME280;50538;53.482;10.294;2023-04-06T04:45:37;101548.41;;;0.26;85.84
63901;BME280;50538;53.482;10.294;2023-04-06T04:55:38;101540.88;;;0.20;85.60
63901;BME280;50538;53.482;10.294;2023-04-06T05:05:39;101539.34;;;0.16;85.56
63901;BME280;50538;53.482;10.294;2023-04-06T05:15:49;101549.13;;;0.12;86.29
63901;BME280;50538;53.482;10.294;2023-04-06T05:26:01;101553.94;;;0.20;86.38
63901;BME280;50538;53.482;10.294;2023-04-06T05:36:01;101545.69;;;0.27;87.11
63901;BME280;50538;53.482;10.294;2023-04-06T05:46:03;101554.34;;;0.45;87.58
63901;BME280;50538;53.482;10.294;2023-04-06T05:56:13;101550.31;;;0.71;88.66
63901;BME280;50538;53.482;10.294;2023-04-06T06:06:22;101547.47;;;1.07;89.34
63901;BME280;50538;53.482;10.294;2023-04-06T06:16:22;101549.94;;;1.56;89.42
63901;BME280;50538;53.482;10.294;2023-04-06T06:26:23;101555.66;;;2.07;87.14
63901;BME280;50538;53.482;10.294;2023-04-06T06:36:26;101548.47;;;2.67;84.61
63901;BME280;50538;53.482;10.294;2023-04-06T06:46:26;101548.69;;;3.32;80.63
63901;BME280;50538;53.482;10.294;2023-04-06T06:56:27;101546.44;;;4.05;77.34
63901;BME280;50538;53.482;10.294;2023-04-06T07:06:28;101543.78;;;4.68;74.02
63901;BME280;50538;53.482;10.294;2023-04-06T07:16:28;101543.81;;;5.40;70.40
63901;BME280;50538;53.482;10.294;2023-04-06T07:26:28;101545.22;;;6.03;68.74
63901;BME280;50538;53.482;10.294;2023-04-06T07:36:29;101533.91;;;6.70;68.18
63901;BME280;50538;53.482;10.294;2023-04-06T07:46:30;101520.81;;;7.33;64.44
63901;BME280;50538;53.482;10.294;2023-04-06T07:56:30;101515.97;;;7.91;61.32
63901;BME280;50538;53.482;10.294;2023-04-06T08:06:31;101509.72;;;8.53;55.56
63901;BME280;50538;53.482;10.294;2023-04-06T08:16:31;101508.56;;;8.96;49.71
63901;BME280;50538;53.482;10.294;2023-04-06T08:26:32;101506.84;;;9.54;48.89
63901;BME280;50538;53.482;10.294;2023-04-06T08:36:32;101502.84;;;9.97;46.15
63901;BME280;50538;53.482;10.294;2023-04-06T08:46:32;101506.69;;;10.32;42.74
63901;BME280;50538;53.482;10.294;2023-04-06T08:56:37;101500.47;;;10.78;41.74
63901;BME280;50538;53.482;10.294;2023-04-06T09:06:38;101492.56;;;11.31;42.00
63901;BME280;50538;53.482;10.294;2023-04-06T09:16:44;101487.28;;;11.75;40.91
63901;BME280;50538;53.482;10.294;2023-04-06T09:26:46;101479.16;;;12.02;42.65
63901;BME280;50538;53.482;10.294;2023-04-06T09:36:47;101468.00;;;12.33;41.21
63901;BME280;50538;53.482;10.294;2023-04-06T09:46:47;101456.03;;;12.71;36.24
63901;BME280;50538;53.482;10.294;2023-04-06T09:56:56;101444.75;;;12.93;33.82
63901;BME280;50538;53.482;10.294;2023-04-06T10:06:58;101450.78;;;13.11;35.97
63901;BME280;50538;53.482;10.294;2023-04-06T10:17:00;101440.47;;;13.33;33.87
63901;BME280;50538;53.482;10.294;2023-04-06T10:27:08;101441.44;;;13.48;33.73
63901;BME280;50538;53.482;10.294;2023-04-06T10:37:14;101436.59;;;13.68;34.40
63901;BME280;50538;53.482;10.294;2023-04-06T10:47:16;101426.41;;;13.87;34.25
63901;BME280;50538;53.482;10.294;2023-04-06T10:57:28;101432.53;;;14.04;33.51
63901;BME280;50538;53.482;10.294;2023-04-06T11:07:29;101414.66;;;14.13;33.58
63901;BME280;50538;53.482;10.294;2023-04-06T11:17:35;101405.47;;;14.15;33.57
63901;BME280;50538;53.482;10.294;2023-04-06T11:27:38;101402.91;;;14.61;34.41
63901;BME280;50538;53.482;10.294;2023-04-06T11:37:39;101387.06;;;14.82;33.84
63901;BME280;50538;53.482;10.294;2023-04-06T11:47:40;101390.59;;;15.06;33.77
63901;BME280;50538;53.482;10.294;2023-04-06T11:57:41;101380.94;;;15.19;32.42
63901;BME280;50538;53.482;10.294;2023-04-06T12:07:42;101374.03;;;15.25;32.37
63901;BME280;50538;53.482;10.294;2023-04-06T12:17:42;101374.63;;;15.35;32.64
63901;BME280;50538;53.482;10.294;2023-04-06T12:27:43;101363.81;;;15.29;33.70
63901;BME280;50538;53.482;10.294;2023-04-06T12:37:43;101366.34;;;15.45;32.76
63901;BME280;50538;53.482;10.294;2023-04-06T12:47:46;101355.59;;;15.68;32.41
63901;BME280;50538;53.482;10.294;2023-04-06T12:57:46;101354.47;;;15.62;30.93
63901;BME280;50538;53.482;10.294;2023-04-06T13:07:47;101342.06;;;15.76;32.44
63901;BME280;50538;53.482;10.294;2023-04-06T13:17:47;101339.84;;;15.79;31.13
63901;BME280;50538;53.482;10.294;2023-04-06T13:27:48;101331.56;;;15.74;31.98
63901;BME280;50538;53.482;10.294;2023-04-06T13:37:48;101317.97;;;15.76;31.97
63901;BME280;50538;53.482;10.294;2023-04-06T13:47:51;101310.13;;;15.89;32.45
63901;BME280;50538;53.482;10.294;2023-04-06T13:57:52;101297.47;;;15.83;31.74
63901;BME280;50538;53.482;10.294;2023-04-06T14:07:52;101291.69;;;15.65;32.28
63901;BME280;50538;53.482;10.294;2023-04-06T14:17:55;101293.16;;;15.52;32.87
63901;BME280;50538;53.482;10.294;2023-04-06T14:27:58;101292.44;;;15.44;33.31
63901;BME280;50538;53.482;10.294;2023-04-06T14:37:59;101288.72;;;15.30;33.37
63901;BME280;50538;53.482;10.294;2023-04-06T14:48:01;101282.78;;;15.20;34.19
63901;BME280;50538;53.482;10.294;2023-04-06T14:58:04;101276.78;;;15.18;33.29
63901;BME280;50538;53.482;10.294;2023-04-06T15:08:05;101274.91;;;15.04;33.88
63901;BME280;50538;53.482;10.294;2023-04-06T15:18:05;101277.25;;;15.21;34.64
63901;BME280;50538;53.482;10.294;2023-04-06T15:28:07;101268.13;;;15.16;33.66
63901;BME280;50538;53.482;10.294;2023-04-06T15:38:08;101265.25;;;15.03;33.91
63901;BME280;50538;53.482;10.294;2023-04-06T15:48:08;101269.56;;;15.04;33.82
63901;BME280;50538;53.482;10.294;2023-04-06T15:58:12;101259.72;;;15.04;35.29
63901;BME280;50538;53.482;10.294;2023-04-06T16:08:16;101256.38;;;15.02;34.47
63901;BME280;50538;53.482;10.294;2023-04-06T16:18:19;101267.25;;;15.01;35.50
63901;BME280;50538;53.482;10.294;2023-04-06T16:28:21;101257.53;;;15.22;36.42
63901;BME280;50538;53.482;10.294;2023-04-06T16:38:25;101256.03;;;16.15;31.83
63901;BME280;50538;53.482;10.294;2023-04-06T16:48:33;101259.28;;;16.46;32.01
63901;BME280;50538;53.482;10.294;2023-04-06T16:58:43;101257.19;;;16.91;32.05
63901;BME280;50538;53.482;10.294;2023-04-06T17:08:46;101251.41;;;16.45;34.14
63901;BME280;50538;53.482;10.294;2023-04-06T17:18:47;101259.03;;;15.40;37.20
63901;BME280;50538;53.482;10.294;2023-04-06T17:28:50;101271.53;;;14.49;40.50
63901;BME280;50538;53.482;10.294;2023-04-06T17:38:51;101285.19;;;13.53;42.95
63901;BME280;50538;53.482;10.294;2023-04-06T17:48:53;101291.50;;;12.73;45.05
63901;BME280;50538;53.482;10.294;2023-04-06T17:58:57;101302.31;;;12.05;46.80
63901;BME280;50538;53.482;10.294;2023-04-06T18:08:58;101318.19;;;11.46;47.41
63901;BME280;50538;53.482;10.294;2023-04-06T18:18:59;101321.50;;;10.97;48.40
63901;BME280;50538;53.482;10.294;2023-04-06T18:29:00;101329.06;;;10.56;49.69
63901;BME280;50538;53.482;10.294;2023-04-06T18:39:01;101338.13;;;10.18;49.91
63901;BME280;50538;53.482;10.294;2023-04-06T18:49:03;101340.41;;;9.85;51.53
63901;BME280;50538;53.482;10.294;2023-04-06T18:59:03;101347.78;;;9.54;52.73
63901;BME280;50538;53.482;10.294;2023-04-06T19:09:04;101355.66;;;9.27;52.67
63901;BME280;50538;53.482;10.294;2023-04-06T19:19:04;101357.06;;;9.02;54.47
63901;BME280;50538;53.482;10.294;2023-04-06T19:29:05;101357.19;;;8.81;54.86
63901;BME280;50538;53.482;10.294;2023-04-06T19:39:05;101361.78;;;8.60;55.29
63901;BME280;50538;53.482;10.294;2023-04-06T19:49:05;101364.81;;;8.36;53.97
63901;BME280;50538;53.482;10.294;2023-04-06T19:59:06;101379.41;;;8.21;55.70
63901;BME280;50538;53.482;10.294;2023-04-06T20:09:06;101374.06;;;8.02;55.46
63901;BME280;50538;53.482;10.294;2023-04-06T20:19:07;101373.69;;;7.85;57.16
63901;BME280;50538;53.482;10.294;2023-04-06T20:29:07;101373.34;;;7.69;55.12
63901;BME280;50538;53.482;10.294;2023-04-06T20:39:08;101381.63;;;7.55;56.41
63901;BME280;50538;53.482;10.294;2023-04-06T20:49:08;101371.53;;;7.39;56.03
63901;BME280;50538;53.482;10.294;2023-04-06T20:59:09;101376.16;;;7.26;56.45
63901;BME280;50538;53.482;10.294;2023-04-06T21:09:09;101372.84;;;7.13;56.63
63901;BME280;50538;53.482;10.294;2023-04-06T21:19:09;101376.66;;;6.99;56.05
63901;BME280;50538;53.482;10.294;2023-04-06T21:29:10;101364.47;;;6.87;57.44
63901;BME280;50538;53.482;10.294;2023-04-06T21:39:11;101355.88;;;6.74;57.22
63901;BME280;50538;53.482;10.294;2023-04-06T21:49:11;101369.94;;;6.63;57.13
63901;BME280;50538;53.482;10.294;2023-04-06T21:59:12;101365.50;;;6.52;56.88
63901;BME280;50538;53.482;10.294;2023-04-06T22:09:12;101361.97;;;6.42;57.19
63901;BME280;50538;53.482;10.294;2023-04-06T22:19:12;101361.88;;;6.32;57.97
63901;BME280;50538;53.482;10.294;2023-04-06T22:29:13;101371.47;;;6.22;58.56
63901;BME280;50538;53.482;10.294;2023-04-06T22:39:13;101366.19;;;6.11;58.21
63901;BME280;50538;53.482;10.294;2023-04-06T22:49:13;101368.59;;;6.03;58.80
63901;BME280;50538;53.482;10.294;2023-04-06T22:59:14;101366.69;;;5.94;59.93
63901;BME280;50538;53.482;10.294;2023-04-06T23:09:14;101390.44;;;5.83;60.03
63901;BME280;50538;53.482;10.294;2023-04-06T23:19:15;101393.91;;;5.72;60.21
63901;BME280;50538;53.482;10.294;2023-04-06T23:29:15;101394.59;;;5.63;60.44
63901;BME280;50538;53.482;10.294;2023-04-06T23:39:15;101393.50;;;5.54;61.24
63901;BME280;50538;53.482;10.294;2023-04-06T23:49:16;101387.97;;;5.46;60.49
63901;BME280;50538;53.482;10.294;2023-04-06T23:59:17;101388.69;;;5.37;61.47
